Time;durP1;ratioP1;P1;durP2;ratioP2;P2;SDS_P1;SDS_P2;PMS_P1;PMS_P2;Temp;Humidity;BMP_temperature;BMP_pressure;BME280_temperature;BME280_humidity;BME280_pressure;Samples;Min_cycle;Max_cycle;Signal;HPM_P1;HPM_P2
2023/12/02 00:01:35;;;;;;;1.17;1.10;;;;;;;-7.42;77.06;100062.97;5066038;28;20029;-71
2023/12/02 00:04:00;;;;;;;1.95;1.17;;;;;;;-7.45;76.98;100057.75;5066025;28;20039;-69
2023/12/02 00:06:26;;;;;;;0.70;0.70;;;;;;;-7.51;77.19;100058.28;5065946;28;20029;-69
2023/12/02 00:08:51;;;;;;;1.83;1.73;;;;;;;-7.47;77.07;100061.84;5065643;28;20051;-70
2023/12/02 00:11:17;;;;;;;1.77;1.67;;;;;;;-7.50;76.99;100072.63;5064985;28;20013;-70
2023/12/02 00:13:42;;;;;;;0.60;0.60;;;;;;;-7.59;76.98;100054.44;5065521;28;20485;-68
2023/12/02 00:16:08;;;;;;;0.93;0.93;;;;;;;-7.54;76.94;100074.88;5065711;28;20051;-70
2023/12/02 00:18:34;;;;;;;0.88;0.88;;;;;;;-7.59;76.70;100062.84;5065552;28;20021;-70
2023/12/02 00:20:59;;;;;;;2.50;1.38;;;;;;;-7.56;76.73;100062.19;5047387;28;20105;-70
2023/12/02 00:23:25;;;;;;;0.88;0.88;;;;;;;-7.59;77.08;100062.00;5065432;28;20490;-71
2023/12/02 00:25:50;;;;;;;0.80;0.80;;;;;;;-7.46;77.67;100064.44;5065515;28;20028;-67
2023/12/02 00:28:15;;;;;;;0.98;0.98;;;;;;;-7.35;77.20;100064.22;5065594;28;20066;-72
2023/12/02 00:30:41;;;;;;;0.60;0.60;;;;;;;-7.37;77.24;100058.22;5047618;28;20025;-70
2023/12/02 00:33:06;;;;;;;2.15;1.95;;;;;;;-7.44;76.95;100061.16;5065293;28;20390;-75
2023/12/02 00:35:31;;;;;;;0.60;0.60;;;;;;;-7.41;76.98;100064.72;5065644;28;20036;-70
2023/12/02 00:37:57;;;;;;;0.73;0.73;;;;;;;-7.47;76.93;100062.72;5065816;28;20016;-68
2023/12/02 00:40:23;;;;;;;0.60;0.60;;;;;;;-7.41;77.01;100061.34;5063768;28;20025;-72
2023/12/02 00:42:48;;;;;;;0.60;0.60;;;;;;;-7.37;77.22;100049.00;5065270;28;20030;-71
2023/12/02 00:45:14;;;;;;;0.60;0.60;;;;;;;-7.34;77.05;100055.84;5047341;28;20033;-71
2023/12/02 00:47:39;;;;;;;0.93;0.77;;;;;;;-7.32;77.15;100061.88;5064708;28;20021;-70
2023/12/02 00:50:06;;;;;;;1.80;1.45;;;;;;;-7.36;77.00;100044.81;5065270;28;20056;-70
2023/12/02 00:52:31;;;;;;;0.80;0.80;;;;;;;-7.33;76.82;100057.59;5063401;28;20028;-71
2023/12/02 00:54:57;;;;;;;2.28;2.17;;;;;;;-7.35;76.82;100056.66;5063795;28;20025;-70
2023/12/02 00:57:22;;;;;;;2.05;1.60;;;;;;;-7.44;76.88;100054.44;5064559;28;20045;-69
2023/12/02 00:59:47;;;;;;;0.70;0.70;;;;;;;-7.48;76.89;100052.53;5064740;28;20017;-70
2023/12/02 01:02:13;;;;;;;1.50;1.40;;;;;;;-7.62;76.87;100036.59;5065206;28;20044;-72
2023/12/02 01:04:38;;;;;;;0.93;0.90;;;;;;;-7.58;76.92;100053.63;5064750;28;20024;-70
2023/12/02 01:07:03;;;;;;;0.93;0.93;;;;;;;-7.66;76.94;100053.19;5065073;28;20028;-69
2023/12/02 01:09:29;;;;;;;0.70;0.70;;;;;;;-7.69;77.14;100055.53;5063532;28;20025;-69
2023/12/02 01:11:54;;;;;;;1.83;1.73;;;;;;;-7.71;77.19;100063.00;5064806;28;20025;-70
2023/12/02 01:14:19;;;;;;;0.90;0.90;;;;;;;-7.76;77.06;100056.81;5064891;28;20053;-70
2023/12/02 01:16:45;;;;;;;0.80;0.80;;;;;;;-7.78;77.33;100060.03;5064665;28;20021;-68
2023/12/02 01:19:10;;;;;;;0.70;0.70;;;;;;;-7.84;77.29;100058.88;5064709;28;20112;-68
2023/12/02 01:21:35;;;;;;;0.70;0.70;;;;;;;-7.86;77.26;100062.09;5064526;28;20032;-68
2023/12/02 01:24:01;;;;;;;2.60;2.40;;;;;;;-7.91;77.34;100068.50;5071621;28;20017;-68
2023/12/02 01:26:26;;;;;;;2.28;2.08;;;;;;;-7.88;77.28;100071.19;5071290;28;20024;-68
2023/12/02 01:28:51;;;;;;;1.88;1.77;;;;;;;-7.90;77.21;100065.19;5071388;28;20020;-69
2023/12/02 01:31:17;;;;;;;1.45;1.35;;;;;;;-7.96;77.20;100060.66;5071475;28;20079;-69
2023/12/02 01:33:42;;;;;;;0.80;0.80;;;;;;;-7.97;77.25;100063.97;5070927;28;20485;-69
2023/12/02 01:36:12;;;;;;;2.08;1.88;;;;;;;-7.93;77.34;100065.00;5053327;28;20025;-69
2023/12/02 01:38:37;;;;;;;1.00;1.00;;;;;;;-7.93;77.32;100057.44;5070737;28;20025;-68
2023/12/02 01:41:03;;;;;;;1.58;1.48;;;;;;;-7.97;77.29;100069.84;5071214;28;20032;-68
2023/12/02 01:43:28;;;;;;;2.03;0.80;;;;;;;-7.96;77.42;100071.63;5071253;28;20068;-68
2023/12/02 01:45:55;;;;;;;0.88;0.88;;;;;;;-8.01;77.22;100067.94;5071011;28;20025;-68
2023/12/02 01:48:23;;;;;;;0.70;0.70;;;;;;;-7.99;77.29;100068.91;5071001;28;20020;-69
2023/12/02 01:50:48;;;;;;;1.65;1.55;;;;;;;-8.02;77.28;100062.81;5071248;28;20025;-68
2023/12/02 01:53:14;;;;;;;1.92;1.83;;;;;;;-8.02;77.43;100068.69;5052886;28;20025;-68
2023/12/02 01:55:39;;;;;;;1.40;1.40;;;;;;;-8.02;77.62;100066.16;5053037;28;20024;-69
2023/12/02 01:58:04;;;;;;;0.82;0.82;;;;;;;-8.04;77.73;100071.91;5071054;28;20101;-68
2023/12/02 02:00:30;;;;;;;1.50;0.80;;;;;;;-8.07;77.45;100067.56;5070967;28;20082;-68
2023/12/02 02:02:55;;;;;;;12.35;3.63;;;;;;;-8.10;77.52;100057.28;5070894;28;20031;-67
2023/12/02 02:05:21;;;;;;;1.67;1.08;;;;;;;-8.03;77.57;100061.03;5071307;28;20013;-68
2023/12/02 02:07:46;;;;;;;1.17;1.00;;;;;;;-8.11;77.46;100060.56;5070964;28;20488;-69
2023/12/02 02:10:11;;;;;;;1.85;1.75;;;;;;;-8.14;77.36;100063.78;5071006;28;20525;-68
2023/12/02 02:12:37;;;;;;;0.60;0.60;;;;;;;-8.13;77.69;100062.16;5052818;28;20051;-68
2023/12/02 02:15:02;;;;;;;0.70;0.70;;;;;;;-8.14;77.42;100070.47;5070922;28;20028;-68
2023/12/02 02:17:28;;;;;;;1.85;1.75;;;;;;;-8.19;77.35;100071.84;5071028;28;20116;-69
2023/12/02 02:19:53;;;;;;;0.60;0.60;;;;;;;-8.15;77.33;100079.69;5052448;28;20112;-68
2023/12/02 02:22:18;;;;;;;0.95;0.93;;;;;;;-8.20;77.64;100070.97;5071080;28;20021;-69
2023/12/02 02:24:44;;;;;;;1.25;1.17;;;;;;;-8.25;77.57;100073.19;5070932;28;20397;-69
2023/12/02 02:27:09;;;;;;;3.10;2.13;;;;;;;-8.28;77.48;100073.00;5070653;28;20025;-68
2023/12/02 02:29:35;;;;;;;1.08;1.08;;;;;;;-8.29;77.29;100073.78;5070787;28;20446;-69
2023/12/02 02:32:00;;;;;;;0.65;0.65;;;;;;;-8.36;77.47;100064.97;5070580;28;20496;-69
2023/12/02 02:34:26;;;;;;;0.70;0.70;;;;;;;-8.34;77.41;100073.47;5068132;28;20074;-69
2023/12/02 02:36:51;;;;;;;0.47;0.47;;;;;;;-8.35;77.57;100070.88;5067490;28;20369;-68
2023/12/02 02:39:17;;;;;;;1.23;1.13;;;;;;;-8.36;77.46;100074.19;5067555;28;20040;-69
2023/12/02 02:41:42;;;;;;;0.60;0.60;;;;;;;-8.38;77.26;100078.22;5049560;28;20149;-68
2023/12/02 02:44:07;;;;;;;0.65;0.65;;;;;;;-8.39;77.46;100074.88;5067598;28;20080;-69
2023/12/02 02:46:33;;;;;;;1.00;1.00;;;;;;;-8.38;77.73;100080.75;5067397;28;20029;-68
2023/12/02 02:48:58;;;;;;;0.60;0.60;;;;;;;-8.44;77.46;100068.66;5067188;28;20029;-69
2023/12/02 02:51:23;;;;;;;0.60;0.60;;;;;;;-8.43;77.62;100072.91;5067288;28;20036;-68
2023/12/02 02:53:49;;;;;;;0.93;0.90;;;;;;;-8.43;77.50;100082.97;5067027;28;20035;-68
2023/12/02 02:56:14;;;;;;;0.65;0.65;;;;;;;-8.43;77.59;100077.94;5067094;28;20060;-68
2023/12/02 02:58:39;;;;;;;1.05;1.05;;;;;;;-8.43;77.10;100082.97;5067704;28;20037;-69
2023/12/02 03:01:05;;;;;;;1.98;1.55;;;;;;;-8.47;77.26;100081.94;5067033;28;20028;-69
2023/12/02 03:03:30;;;;;;;1.80;1.70;;;;;;;-8.53;77.28;100071.44;5066730;28;20053;-69
2023/12/02 03:05:56;;;;;;;0.68;0.68;;;;;;;-8.48;77.20;100084.38;5067124;28;20093;-69
2023/12/02 03:08:21;;;;;;;1.95;1.77;;;;;;;-8.47;77.42;100086.09;5066567;28;20493;-69
2023/12/02 03:10:48;;;;;;;1.70;1.33;;;;;;;-8.46;77.34;100090.34;5049180;28;20084;-69
2023/12/02 03:13:13;;;;;;;0.60;0.60;;;;;;;-8.46;77.06;100083.69;5066758;28;20032;-69
2023/12/02 03:15:38;;;;;;;2.22;2.03;;;;;;;-8.44;77.16;100076.22;5066756;28;20108;-68
2023/12/02 03:18:04;;;;;;;0.70;0.70;;;;;;;-8.47;77.43;100081.94;5048753;28;20063;-68
2023/12/02 03:20:29;;;;;;;2.08;1.88;;;;;;;-8.42;77.81;100077.19;5048900;28;20033;-68
2023/12/02 03:22:55;;;;;;;0.70;0.70;;;;;;;-8.31;77.60;100067.78;5048481;28;20096;-69
2023/12/02 03:25:20;;;;;;;1.75;1.65;;;;;;;-8.28;77.88;100070.50;5066867;28;20029;-68
2023/12/02 03:27:45;;;;;;;0.60;0.60;;;;;;;-8.20;77.85;100068.44;5066347;28;20025;-68
2023/12/02 03:30:12;;;;;;;0.80;0.80;;;;;;;-8.03;77.94;100069.47;5048767;28;20017;-68
2023/12/02 03:32:38;;;;;;;0.60;0.60;;;;;;;-7.90;78.26;100066.06;5065110;28;20036;-68
2023/12/02 03:35:08;;;;;;;1.52;1.30;;;;;;;-7.84;78.32;100063.91;5066458;28;20029;-69
2023/12/02 03:37:36;;;;;;;1.38;1.27;;;;;;;-7.70;78.36;100068.91;5066589;28;20025;-68
2023/12/02 03:40:02;;;;;;;0.90;0.90;;;;;;;-7.59;78.42;100062.84;5066317;28;20071;-68
2023/12/02 03:42:27;;;;;;;0.80;0.80;;;;;;;-7.50;78.34;100059.13;5066364;28;20024;-68
2023/12/02 03:44:52;;;;;;;0.60;0.60;;;;;;;-7.41;78.38;100059.66;5066139;28;20490;-68
2023/12/02 03:47:18;;;;;;;0.70;0.70;;;;;;;-7.27;78.35;100067.19;5065058;28;20033;-67
2023/12/02 03:49:43;;;;;;;0.85;0.85;;;;;;;-7.16;78.38;100070.31;5065982;28;20088;-68
2023/12/02 03:52:09;;;;;;;0.80;0.80;;;;;;;-7.09;78.51;100059.78;5066189;28;20035;-68
2023/12/02 03:54:34;;;;;;;2.78;2.65;;;;;;;-6.98;78.31;100068.84;5066341;28;20029;-68
2023/12/02 03:57:00;;;;;;;0.88;0.88;;;;;;;-6.95;78.33;100067.28;5065631;28;20080;-68
2023/12/02 03:59:25;;;;;;;2.45;1.95;;;;;;;-6.92;77.95;100060.78;5048052;28;20025;-69
2023/12/02 04:01:51;;;;;;;0.80;0.80;;;;;;;-7.01;77.89;100035.88;5065869;28;20103;-69
2023/12/02 04:04:18;;;;;;;0.75;0.75;;;;;;;-6.82;77.95;100059.63;5065797;28;20021;-69
2023/12/02 04:06:44;;;;;;;1.48;1.30;;;;;;;-6.79;78.08;100054.78;5047969;28;20017;-68
2023/12/02 04:09:10;;;;;;;0.60;0.60;;;;;;;-6.77;77.95;100040.56;5047671;28;20084;-69
2023/12/02 04:11:35;;;;;;;3.40;3.10;;;;;;;-6.65;77.95;100052.13;5047967;28;20024;-68
2023/12/02 04:14:01;;;;;;;0.98;0.98;;;;;;;-6.68;78.09;100044.38;5065622;28;20020;-68
2023/12/02 04:16:27;;;;;;;0.75;0.75;;;;;;;-6.65;77.77;100036.97;5065804;28;20017;-69
2023/12/02 04:18:52;;;;;;;0.75;0.75;;;;;;;-6.68;77.66;100040.22;5065638;28;20389;-68
2023/12/02 04:21:18;;;;;;;0.68;0.68;;;;;;;-6.69;77.68;100030.88;5065358;28;20025;-68
2023/12/02 04:23:43;;;;;;;0.80;0.80;;;;;;;-6.66;77.66;100025.16;5065390;28;20039;-68
2023/12/02 04:26:09;;;;;;;0.60;0.60;;;;;;;-6.63;77.71;100032.88;5065584;28;20096;-68
2023/12/02 04:28:34;;;;;;;0.60;0.60;;;;;;;-6.62;77.63;100040.56;5065300;28;20040;-68
2023/12/02 04:30:59;;;;;;;1.75;1.55;;;;;;;-6.56;77.52;100034.94;5065358;28;20021;-68
2023/12/02 04:33:25;;;;;;;0.98;0.98;;;;;;;-6.55;77.41;100034.16;5065309;28;20021;-68
2023/12/02 04:35:50;;;;;;;0.70;0.70;;;;;;;-6.52;77.79;100034.34;5047313;28;20024;-69
2023/12/02 04:38:16;;;;;;;0.73;0.73;;;;;;;-6.45;77.94;100054.91;5065329;28;20028;-69
2023/12/02 04:40:41;;;;;;;2.08;1.98;;;;;;;-6.42;77.90;100045.81;5047451;28;20056;-69
2023/12/02 04:43:07;;;;;;;1.55;1.35;;;;;;;-6.37;77.74;100049.47;5064888;28;20037;-68
2023/12/02 04:45:32;;;;;;;0.70;0.70;;;;;;;-6.43;77.93;100048.25;5065138;28;20025;-68
2023/12/02 04:47:58;;;;;;;0.73;0.73;;;;;;;-6.41;77.60;100051.75;5064952;28;20053;-69
2023/12/02 04:50:23;;;;;;;0.57;0.57;;;;;;;-6.36;77.66;100050.34;5065229;28;20024;-69
2023/12/02 04:52:49;;;;;;;1.73;1.58;;;;;;;-6.44;77.77;100056.63;5063643;28;20032;-68
2023/12/02 04:55:14;;;;;;;1.95;1.08;;;;;;;-6.43;77.72;100049.13;5065070;28;20108;-68
2023/12/02 04:57:40;;;;;;;0.70;0.70;;;;;;;-6.42;77.98;100050.00;5064436;28;20506;-68
2023/12/02 05:00:13;;;;;;;1.40;1.35;;;;;;;-6.39;77.73;100047.66;5047277;28;20460;-68
2023/12/02 05:02:42;;;;;;;1.35;1.00;;;;;;;-6.40;77.71;100061.94;5046982;28;20021;-68
2023/12/02 05:05:10;;;;;;;1.42;1.40;;;;;;;-6.45;77.70;100053.22;5064832;28;20086;-68
2023/12/02 05:07:35;;;;;;;1.13;1.13;;;;;;;-6.50;77.72;100047.06;5064960;28;20088;-68
2023/12/02 05:10:01;;;;;;;1.40;1.20;;;;;;;-6.46;78.00;100051.50;5064913;28;20073;-68
2023/12/02 05:12:26;;;;;;;0.75;0.75;;;;;;;-6.37;77.77;100063.72;5046923;28;20381;-67
2023/12/02 05:14:51;;;;;;;1.33;0.75;;;;;;;-6.36;77.80;100062.97;5046944;28;20055;-68
2023/12/02 05:17:17;;;;;;;0.85;0.82;;;;;;;-6.36;77.75;100065.50;5064579;28;20170;-67
2023/12/02 05:19:43;;;;;;;2.28;1.40;;;;;;;-6.35;77.92;100064.69;5064532;28;20031;-68
2023/12/02 05:22:08;;;;;;;0.98;0.98;;;;;;;-6.35;77.89;100062.19;5064764;28;20017;-67
2023/12/02 05:24:33;;;;;;;0.63;0.63;;;;;;;-6.36;77.93;100055.38;5064567;28;20020;-68
2023/12/02 05:26:59;;;;;;;1.23;1.23;;;;;;;-6.28;77.91;100061.75;5046775;28;20036;-68
2023/12/02 05:29:24;;;;;;;1.75;1.60;;;;;;;-6.25;77.69;100061.91;5064361;28;20036;-68
2023/12/02 05:31:49;;;;;;;0.70;0.70;;;;;;;-6.25;77.75;100055.97;5064782;28;20163;-68
2023/12/02 05:34:15;;;;;;;0.88;0.88;;;;;;;-6.22;77.84;100061.19;5064378;28;20057;-67
2023/12/02 05:36:40;;;;;;;1.33;1.30;;;;;;;-6.24;77.86;100066.16;5064664;28;20458;-68
2023/12/02 05:39:05;;;;;;;0.85;0.85;;;;;;;-6.20;77.86;100063.78;5064523;28;20017;-68
2023/12/02 05:41:31;;;;;;;0.85;0.85;;;;;;;-6.23;77.63;100067.03;5064414;28;20031;-67
2023/12/02 05:43:56;;;;;;;0.70;0.70;;;;;;;-6.30;77.83;100055.72;5046496;28;20021;-67
2023/12/02 05:46:22;;;;;;;0.50;0.50;;;;;;;-6.32;77.72;100057.28;5064383;28;20025;-68
2023/12/02 05:48:47;;;;;;;2.90;1.20;;;;;;;-6.29;77.73;100057.44;5064498;28;20020;-67
2023/12/02 05:51:13;;;;;;;1.77;0.93;;;;;;;-6.33;77.90;100054.69;5064224;28;20017;-67
2023/12/02 05:53:39;;;;;;;0.60;0.60;;;;;;;-6.30;77.93;100055.72;5064468;28;20021;-67
2023/12/02 05:56:06;;;;;;;6.80;1.77;;;;;;;-6.30;77.77;100055.72;5064234;28;20123;-67
2023/12/02 05:58:32;;;;;;;1.65;1.55;;;;;;;-6.29;77.81;100059.97;5064382;28;20032;-68
2023/12/02 06:00:57;;;;;;;0.60;0.60;;;;;;;-6.27;77.85;100060.94;5064412;28;20059;-68
2023/12/02 06:03:23;;;;;;;4.10;1.08;;;;;;;-6.31;77.73;100058.16;5063781;28;20040;-68
2023/12/02 06:05:48;;;;;;;0.60;0.60;;;;;;;-6.28;77.96;100064.25;5046692;28;20063;-68
2023/12/02 06:08:14;;;;;;;2.20;2.08;;;;;;;-6.29;78.23;100062.50;5064217;28;20489;-68
2023/12/02 06:10:39;;;;;;;2.10;1.95;;;;;;;-6.26;77.79;100064.34;5049553;28;20031;-69
2023/12/02 06:13:05;;;;;;;0.70;0.70;;;;;;;-6.28;77.87;100064.25;5067803;28;20039;-67
2023/12/02 06:15:30;;;;;;;0.60;0.60;;;;;;;-6.26;77.89;100065.19;5068042;28;20023;-67
2023/12/02 06:17:56;;;;;;;1.10;1.10;;;;;;;-6.30;77.89;100058.25;5067956;28;20424;-69
2023/12/02 06:20:26;;;;;;;0.68;0.68;;;;;;;-6.24;77.99;100068.69;5068152;28;20072;-68
2023/12/02 06:22:52;;;;;;;0.70;0.70;;;;;;;-6.23;77.84;100072.94;5067880;28;20028;-68
2023/12/02 06:25:17;;;;;;;1.75;1.65;;;;;;;-6.22;77.96;100072.16;5049800;28;20043;-67
2023/12/02 06:27:42;;;;;;;4.97;1.02;;;;;;;-6.19;77.84;100079.03;5050015;28;20292;-68
2023/12/02 06:30:09;;;;;;;2.05;1.95;;;;;;;-6.19;78.07;100071.47;5067759;28;20017;-67
2023/12/02 06:32:34;;;;;;;3.15;2.70;;;;;;;-6.16;77.84;100076.69;5067678;28;20032;-68
2023/12/02 06:35:00;;;;;;;0.60;0.60;;;;;;;-6.16;78.10;100080.84;5067411;28;20021;-67
2023/12/02 06:37:25;;;;;;;0.80;0.80;;;;;;;-6.17;77.83;100074.94;5067635;28;20033;-68
2023/12/02 06:39:50;;;;;;;1.90;0.95;;;;;;;-6.10;78.12;100076.13;5049671;28;20037;-68
2023/12/02 06:42:16;;;;;;;2.13;2.00;;;;;;;-6.04;78.08;100078.13;5067567;28;20024;-68
2023/12/02 06:44:42;;;;;;;1.48;1.00;;;;;;;-5.89;78.33;100083.09;5067291;28;20028;-68
2023/12/02 06:47:08;;;;;;;0.65;0.65;;;;;;;-5.87;78.34;100084.03;5067435;28;20016;-68
2023/12/02 06:49:33;;;;;;;0.88;0.88;;;;;;;-5.78;78.07;100092.09;5049102;28;20028;-68
2023/12/02 06:51:59;;;;;;;0.88;0.88;;;;;;;-5.73;77.74;100093.22;5065999;28;20035;-68
2023/12/02 06:54:24;;;;;;;0.60;0.60;;;;;;;-5.69;77.98;100086.69;5067410;28;20056;-68
2023/12/02 06:56:50;;;;;;;0.70;0.70;;;;;;;-5.70;78.27;100089.97;5066961;28;20061;-67
2023/12/02 06:59:15;;;;;;;0.70;0.70;;;;;;;-5.63;77.59;100091.19;5067285;28;20104;-68
2023/12/02 07:01:40;;;;;;;1.08;1.08;;;;;;;-5.67;77.74;100085.09;5065975;28;20053;-67
2023/12/02 07:04:06;;;;;;;1.40;1.30;;;;;;;-5.59;77.81;100103.19;5067097;28;20033;-67
2023/12/02 07:06:32;;;;;;;0.60;0.60;;;;;;;-5.52;77.56;100099.31;5049041;28;20389;-67
2023/12/02 07:08:58;;;;;;;0.98;0.98;;;;;;;-5.51;77.76;100094.34;5067154;28;20029;-68
2023/12/02 07:11:24;;;;;;;0.80;0.80;;;;;;;-5.49;77.55;100102.00;5048817;28;20025;-67
2023/12/02 07:13:50;;;;;;;0.70;0.70;;;;;;;-5.49;77.44;100100.34;5067230;28;20488;-67
2023/12/02 07:16:15;;;;;;;0.95;0.85;;;;;;;-5.47;77.52;100098.78;5048898;28;20092;-67
2023/12/02 07:18:41;;;;;;;4.07;1.17;;;;;;;-5.55;77.60;100094.97;5066744;28;20021;-68
2023/12/02 07:21:10;;;;;;;0.90;0.90;;;;;;;-5.61;77.24;100095.50;5066598;28;20183;-68
2023/12/02 07:23:36;;;;;;;1.20;1.20;;;;;;;-5.61;77.41;100102.25;5066685;28;20025;-68
2023/12/02 07:26:01;;;;;;;1.65;1.50;;;;;;;-5.60;77.31;100106.50;5066655;28;20033;-68
2023/12/02 07:28:27;;;;;;;1.00;0.88;;;;;;;-5.69;77.50;100100.97;5066741;28;20080;-69
2023/12/02 07:30:52;;;;;;;0.70;0.70;;;;;;;-5.74;77.64;100096.56;5066710;28;20013;-69
2023/12/02 07:33:22;;;;;;;0.60;0.60;;;;;;;-5.71;77.61;100116.06;5066245;28;20052;-68
2023/12/02 07:35:47;;;;;;;0.50;0.50;;;;;;;-5.74;77.83;100110.84;5066295;28;20020;-68
2023/12/02 07:38:13;;;;;;;0.80;0.80;;;;;;;-5.77;77.72;100111.56;5066373;28;20055;-68
2023/12/02 07:40:39;;;;;;;0.70;0.70;;;;;;;-5.79;77.76;100097.09;5066254;28;20051;-68
2023/12/02 07:43:04;;;;;;;1.70;1.23;;;;;;;-5.64;77.98;100117.28;5065276;28;20085;-68
2023/12/02 07:45:29;;;;;;;1.48;1.38;;;;;;;-5.67;77.82;100117.97;5066147;28;20104;-69
2023/12/02 07:47:55;;;;;;;0.50;0.50;;;;;;;-5.70;77.95;100114.41;5066033;28;20108;-68
2023/12/02 07:50:21;;;;;;;1.60;1.50;;;;;;;-5.63;77.87;100129.13;5066021;28;20028;-67
2023/12/02 07:52:46;;;;;;;0.60;0.60;;;;;;;-5.69;77.68;100124.63;5066293;28;20021;-67
2023/12/02 07:55:12;;;;;;;0.60;0.60;;;;;;;-5.67;77.85;100129.75;5066079;28;20033;-68
2023/12/02 07:57:38;;;;;;;0.68;0.68;;;;;;;-5.70;78.19;100135.50;5065462;28;20068;-68
2023/12/02 08:00:04;;;;;;;0.85;0.85;;;;;;;-5.72;78.02;100122.78;5064694;28;20025;-69
2023/12/02 08:02:29;;;;;;;2.08;1.98;;;;;;;-5.65;78.00;100130.69;5065904;28;20020;-68
2023/12/02 08:04:55;;;;;;;0.85;0.85;;;;;;;-5.60;77.86;100139.41;5065815;28;20035;-68
2023/12/02 08:07:20;;;;;;;0.90;0.90;;;;;;;-5.61;77.89;100142.72;5066066;28;20021;-68
2023/12/02 08:09:45;;;;;;;0.60;0.60;;;;;;;-5.57;77.99;100138.72;5047887;28;20525;-69
2023/12/02 08:12:11;;;;;;;0.60;0.60;;;;;;;-5.54;77.86;100147.31;5047868;28;20082;-67
2023/12/02 08:14:36;;;;;;;0.95;0.95;;;;;;;-5.55;77.88;100148.09;5065739;28;20469;-68
2023/12/02 08:17:02;;;;;;;0.60;0.60;;;;;;;-5.58;78.02;100147.94;5065867;28;20175;-68
2023/12/02 08:19:28;;;;;;;1.23;1.23;;;;;;;-5.55;77.86;100145.56;5065461;28;20036;-68
2023/12/02 08:21:54;;;;;;;1.98;1.33;;;;;;;-5.50;77.95;100156.81;5066275;28;20076;-68
2023/12/02 08:24:19;;;;;;;0.88;0.88;;;;;;;-5.52;78.10;100157.50;5065667;28;20025;-69
2023/12/02 08:26:47;;;;;;;13.25;4.32;;;;;;;-5.44;78.11;100155.38;5065651;28;20032;-68
2023/12/02 08:29:12;;;;;;;1.33;1.33;;;;;;;-5.49;77.83;100152.59;5065661;28;20021;-68
2023/12/02 08:31:38;;;;;;;0.80;0.80;;;;;;;-5.44;78.00;100162.97;5046852;28;20021;-67
2023/12/02 08:34:03;;;;;;;0.90;0.90;;;;;;;-5.39;77.97;100153.97;5065161;28;20102;-69
2023/12/02 08:36:28;;;;;;;0.88;0.88;;;;;;;-5.32;77.93;100166.16;5065131;28;20055;-67
2023/12/02 08:38:54;;;;;;;0.80;0.80;;;;;;;-5.35;78.00;100165.97;5063824;28;20024;-67
2023/12/02 08:41:19;;;;;;;0.88;0.88;;;;;;;-5.30;77.80;100167.09;5065228;28;20025;-68
2023/12/02 08:43:44;;;;;;;0.60;0.60;;;;;;;-5.29;77.91;100171.38;5065058;28;20119;-68
2023/12/02 08:46:19;;;;;;;0.52;0.52;;;;;;;-5.25;78.03;100180.88;5065244;28;20024;-68
2023/12/02 08:48:45;;;;;;;0.77;0.77;;;;;;;-5.25;78.00;100179.97;5065121;28;20044;-68
2023/12/02 08:51:11;;;;;;;0.65;0.63;;;;;;;-5.27;77.78;100179.91;5065155;28;20021;-69
2023/12/02 08:53:36;;;;;;;0.50;0.50;;;;;;;-5.24;77.91;100182.59;5064680;28;20048;-69
2023/12/02 08:56:01;;;;;;;10.23;2.15;;;;;;;-5.20;77.90;100175.16;5046691;28;20539;-69
2023/12/02 08:58:27;;;;;;;2.13;1.90;;;;;;;-5.25;77.88;100179.97;5064735;28;20032;-69
2023/12/02 09:00:52;;;;;;;1.10;1.10;;;;;;;-5.20;77.95;100185.28;5064805;28;20017;-71
2023/12/02 09:03:17;;;;;;;1.10;1.10;;;;;;;-5.16;78.31;100192.25;5064896;28;20405;-70
2023/12/02 09:05:43;;;;;;;1.02;1.02;;;;;;;-5.11;78.36;100188.28;5064539;28;20033;-72
2023/12/02 09:08:09;;;;;;;1.60;1.50;;;;;;;-4.95;78.21;100194.16;5047094;28;20021;-71
2023/12/02 09:10:34;;;;;;;0.60;0.60;;;;;;;-4.88;78.15;100198.72;5064515;28;20025;-69
2023/12/02 09:12:59;;;;;;;0.60;0.60;;;;;;;-4.87;77.98;100201.34;5064551;28;20067;-70
2023/12/02 09:15:43;;;;;;;0.70;0.70;;;;;;;-4.97;77.90;100197.47;5064534;28;20036;-70
2023/12/02 09:18:13;;;;;;;0.80;0.80;;;;;;;-4.98;77.96;100188.13;5064249;28;20137;-70
2023/12/02 09:20:45;;;;;;;0.68;0.68;;;;;;;-4.90;78.06;100201.19;5063122;28;20021;-69
2023/12/02 09:23:12;;;;;;;2.75;2.30;;;;;;;-4.86;78.38;100204.75;5064910;28;20021;-69
2023/12/02 09:25:38;;;;;;;0.60;0.60;;;;;;;-4.87;78.02;100203.88;5063769;28;20055;-69
2023/12/02 09:28:05;;;;;;;0.55;0.55;;;;;;;-4.87;78.10;100210.59;5064537;28;20040;-70
2023/12/02 09:30:31;;;;;;;0.60;0.60;;;;;;;-4.90;78.00;100211.31;5064295;28;20013;-70
2023/12/02 09:32:57;;;;;;;0.50;0.50;;;;;;;-4.91;78.18;100208.72;5064642;28;20032;-70
2023/12/02 09:35:22;;;;;;;0.65;0.65;;;;;;;-4.85;78.27;100203.97;5064495;28;20029;-71
2023/12/02 09:37:55;;;;;;;0.60;0.60;;;;;;;-4.78;78.31;100212.75;5046506;28;20465;-70
2023/12/02 09:40:20;;;;;;;0.50;0.50;;;;;;;-4.73;78.34;100214.69;5064608;28;20025;-70
2023/12/02 09:42:51;;;;;;;1.70;1.60;;;;;;;-4.73;78.20;100213.84;5064720;28;20021;-70
2023/12/02 09:45:19;;;;;;;1.13;1.10;;;;;;;-4.77;78.33;100201.81;5068280;28;20082;-69
2023/12/02 09:47:54;;;;;;;1.02;1.02;;;;;;;-4.69;78.39;100209.78;5068412;28;20047;-69
2023/12/02 09:50:22;;;;;;;1.35;1.30;;;;;;;-4.61;78.27;100208.53;5068382;28;20017;-69
2023/12/02 09:53:05;;;;;;;0.88;0.88;;;;;;;-4.61;78.31;100206.88;5068422;28;20025;-70
2023/12/02 09:55:41;;;;;;;3.30;2.05;;;;;;;-4.58;78.24;100197.69;5068454;28;20020;-69
2023/12/02 09:58:23;;;;;;;1.95;1.25;;;;;;;-4.56;78.19;100209.63;5050018;28;20055;-69
2023/12/02 10:01:07;;;;;;;0.93;0.93;;;;;;;-4.54;78.14;100208.06;5049868;28;20017;-70
2023/12/02 10:04:03;;;;;;;2.40;2.20;;;;;;;-4.59;78.28;100209.47;5068324;28;20055;-70
2023/12/02 10:06:37;;;;;;;1.17;1.17;;;;;;;-4.54;78.33;100205.50;5026610;28;20041;-67
2023/12/02 10:09:12;;;;;;;8.88;4.07;;;;;;;-4.50;78.40;100212.47;5068512;28;20036;-69
2023/12/02 10:12:00;;;;;;;0.98;0.98;;;;;;;-4.44;78.42;100208.50;5067971;28;20048;-68
2023/12/02 10:14:26;;;;;;;0.60;0.60;;;;;;;-4.34;78.62;100213.22;5067301;28;20393;-67
2023/12/02 10:16:55;;;;;;;1.00;0.95;;;;;;;-4.28;78.46;100200.00;5068306;28;20025;-67
2023/12/02 10:19:36;;;;;;;1.48;0.80;;;;;;;-4.16;78.56;100199.69;5066433;28;20377;-66
2023/12/02 10:22:03;;;;;;;2.78;1.10;;;;;;;-4.10;78.66;100202.53;5049937;28;20017;-67
2023/12/02 10:24:36;;;;;;;0.88;0.88;;;;;;;-4.06;78.65;100191.75;5049642;28;20500;-67
2023/12/02 10:27:06;;;;;;;0.52;0.52;;;;;;;-3.89;78.59;100199.25;5067761;28;20055;-67
2023/12/02 10:29:32;;;;;;;1.23;1.23;;;;;;;-3.81;78.56;100203.03;5067748;28;20021;-67
2023/12/02 10:32:12;;;;;;;0.60;0.60;;;;;;;-3.76;78.54;100204.13;5067871;28;20074;-67
2023/12/02 10:34:52;;;;;;;4.60;1.55;;;;;;;-3.70;78.30;100206.06;5067322;28;20029;-68
2023/12/02 10:37:25;;;;;;;7.82;1.10;;;;;;;-3.67;78.24;100205.34;5067636;28;20025;-68
2023/12/02 10:39:54;;;;;;;8.18;1.05;;;;;;;-3.69;78.18;100194.25;5067547;28;20044;-69
2023/12/02 10:42:41;;;;;;;1.10;1.08;;;;;;;-3.70;78.04;100200.13;5067668;28;20040;-68
2023/12/02 10:45:08;;;;;;;0.65;0.65;;;;;;;-3.73;78.25;100195.78;5066913;28;20055;-67
2023/12/02 10:47:34;;;;;;;0.90;0.90;;;;;;;-3.68;77.90;100203.59;5049363;28;20074;-68
2023/12/02 10:50:00;;;;;;;1.35;1.25;;;;;;;-3.66;78.22;100209.63;5067158;28;20029;-68
2023/12/02 10:52:28;;;;;;;1.20;1.20;;;;;;;-3.68;77.83;100208.69;5067130;28;20028;-68
2023/12/02 10:54:59;;;;;;;0.75;0.75;;;;;;;-3.68;78.07;100218.81;5066594;28;20029;-67
2023/12/02 10:57:26;;;;;;;0.70;0.70;;;;;;;-3.65;78.07;100213.91;5067093;28;20040;-68
2023/12/02 11:00:06;;;;;;;1.33;1.23;;;;;;;-3.65;78.05;100218.97;5067052;28;20032;-68
2023/12/02 11:02:41;;;;;;;2.45;2.25;;;;;;;-3.61;78.03;100218.31;5049231;28;20374;-70
2023/12/02 11:05:19;;;;;;;0.95;0.90;;;;;;;-3.59;77.91;100218.41;5067056;28;20052;-67
2023/12/02 11:07:49;;;;;;;5.18;2.05;;;;;;;-3.66;78.01;100212.16;5066973;28;20025;-67
2023/12/02 11:10:19;;;;;;;1.25;0.80;;;;;;;-3.60;77.99;100220.06;5065802;28;20017;-67
2023/12/02 11:13:12;;;;;;;2.05;1.77;;;;;;;-3.60;77.80;100225.13;5066989;28;20060;-67
2023/12/02 11:15:47;;;;;;;2.10;1.90;;;;;;;-3.61;77.76;100218.31;5066813;28;20094;-68
2023/12/02 11:18:17;;;;;;;2.80;1.45;;;;;;;-3.63;77.81;100209.75;5066633;28;20025;-67
2023/12/02 11:21:02;;;;;;;0.60;0.60;;;;;;;-3.65;77.56;100204.63;5067036;28;20049;-68
2023/12/02 11:23:50;;;;;;;0.70;0.70;;;;;;;-3.60;77.76;100214.97;5066562;28;20106;-67